sensor_id;sensor_type;location;lat;lon;timestamp;P1;durP1;ratioP1;P2;durP2;ratioP2
19339;SDS011;9804;52.350;6.684;2022-09-09T00:00:46;6.25;;;2.63;;
19339;SDS011;9804;52.350;6.684;2022-09-09T00:03:16;4.95;;;2.80;;
19339;SDS011;9804;52.350;6.684;2022-09-09T00:05:53;5.45;;;2.70;;
19339;SDS011;9804;52.350;6.684;2022-09-09T00:08:45;7.72;;;3.60;;
19339;SDS011;9804;52.350;6.684;2022-09-09T00:11:56;9.52;;;2.75;;
19339;SDS011;9804;52.350;6.684;2022-09-09T00:17:18;10.05;;;3.78;;
19339;SDS011;9804;52.350;6.684;2022-09-09T00:20:01;5.38;;;3.05;;
19339;SDS011;9804;52.350;6.684;2022-09-09T00:22:36;6.22;;;2.88;;
19339;SDS011;9804;52.350;6.684;2022-09-09T00:27:47;6.30;;;3.53;;
19339;SDS011;9804;52.350;6.684;2022-09-09T00:30:24;7.60;;;3.20;;
19339;SDS011;9804;52.350;6.684;2022-09-09T00:33:10;5.15;;;3.10;;
19339;SDS011;9804;52.350;6.684;2022-09-09T00:35:41;5.72;;;3.38;;
19339;SDS011;9804;52.350;6.684;2022-09-09T00:38:14;7.25;;;3.50;;
19339;SDS011;9804;52.350;6.684;2022-09-09T00:40:53;7.55;;;3.40;;
19339;SDS011;9804;52.350;6.684;2022-09-09T00:48:20;3.45;;;2.42;;
19339;SDS011;9804;52.350;6.684;2022-09-09T00:50:57;7.72;;;3.47;;
19339;SDS011;9804;52.350;6.684;2022-09-09T00:53:29;6.22;;;3.30;;
19339;SDS011;9804;52.350;6.684;2022-09-09T00:56:12;4.38;;;2.75;;
19339;SDS011;9804;52.350;6.684;2022-09-09T00:58:58;4.43;;;3.10;;
19339;SDS011;9804;52.350;6.684;2022-09-09T01:01:30;6.82;;;3.25;;
19339;SDS011;9804;52.350;6.684;2022-09-09T01:03:56;4.75;;;3.38;;
19339;SDS011;9804;52.350;6.684;2022-09-09T01:06:28;6.35;;;3.38;;
19339;SDS011;9804;52.350;6.684;2022-09-09T01:11:58;8.48;;;3.97;;
19339;SDS011;9804;52.350;6.684;2022-09-09T01:17:03;7.38;;;4.35;;
19339;SDS011;9804;52.350;6.684;2022-09-09T01:19:55;7.10;;;5.13;;
19339;SDS011;9804;52.350;6.684;2022-09-09T01:22:31;6.50;;;4.85;;
19339;SDS011;9804;52.350;6.684;2022-09-09T01:27:55;8.18;;;4.78;;
19339;SDS011;9804;52.350;6.684;2022-09-09T01:30:24;10.75;;;5.30;;
19339;SDS011;9804;52.350;6.684;2022-09-09T01:32:53;6.70;;;4.93;;
19339;SDS011;9804;52.350;6.684;2022-09-09T01:38:01;5.13;;;4.50;;
19339;SDS011;9804;52.350;6.684;2022-09-09T01:40:26;8.40;;;5.30;;
19339;SDS011;9804;52.350;6.684;2022-09-09T01:42:52;7.53;;;6.53;;
19339;SDS011;9804;52.350;6.684;2022-09-09T01:45:18;8.95;;;7.00;;
19339;SDS011;9804;52.350;6.684;2022-09-09T01:47:44;8.55;;;6.13;;
19339;SDS011;9804;52.350;6.684;2022-09-09T01:50:11;10.00;;;6.78;;
19339;SDS011;9804;52.350;6.684;2022-09-09T01:52:39;8.05;;;6.50;;
19339;SDS011;9804;52.350;6.684;2022-09-09T01:55:07;11.32;;;8.05;;
19339;SDS011;9804;52.350;6.684;2022-09-09T01:57:52;10.60;;;7.85;;
19339;SDS011;9804;52.350;6.684;2022-09-09T02:00:30;10.52;;;6.95;;
19339;SDS011;9804;52.350;6.684;2022-09-09T02:08:40;11.65;;;7.80;;
19339;SDS011;9804;52.350;6.684;2022-09-09T02:11:16;10.85;;;7.43;;
19339;SDS011;9804;52.350;6.684;2022-09-09T02:13:45;9.45;;;6.82;;
19339;SDS011;9804;52.350;6.684;2022-09-09T02:16:13;8.05;;;6.28;;
19339;SDS011;9804;52.350;6.684;2022-09-09T02:18:51;8.65;;;5.47;;
19339;SDS011;9804;52.350;6.684;2022-09-09T02:21:18;8.02;;;5.88;;
19339;SDS011;9804;52.350;6.684;2022-09-09T02:23:43;7.22;;;5.03;;
19339;SDS011;9804;52.350;6.684;2022-09-09T02:26:12;9.35;;;5.45;;
19339;SDS011;9804;52.350;6.684;2022-09-09T02:28:44;5.95;;;5.22;;
19339;SDS011;9804;52.350;6.684;2022-09-09T02:31:11;9.77;;;5.65;;
19339;SDS011;9804;52.350;6.684;2022-09-09T02:33:39;8.40;;;5.38;;
19339;SDS011;9804;52.350;6.684;2022-09-09T02:36:08;6.40;;;5.70;;
19339;SDS011;9804;52.350;6.684;2022-09-09T02:38:37;7.60;;;5.97;;
19339;SDS011;9804;52.350;6.684;2022-09-09T02:41:05;4.97;;;3.67;;
19339;SDS011;9804;52.350;6.684;2022-09-09T02:43:32;7.57;;;4.70;;
19339;SDS011;9804;52.350;6.684;2022-09-09T02:46:02;8.40;;;5.10;;
19339;SDS011;9804;52.350;6.684;2022-09-09T02:51:24;5.68;;;5.05;;
19339;SDS011;9804;52.350;6.684;2022-09-09T02:54:16;6.38;;;4.95;;
19339;SDS011;9804;52.350;6.684;2022-09-09T02:56:50;6.07;;;5.15;;
19339;SDS011;9804;52.350;6.684;2022-09-09T02:59:19;6.53;;;5.18;;
19339;SDS011;9804;52.350;6.684;2022-09-09T03:01:46;6.35;;;5.47;;
19339;SDS011;9804;52.350;6.684;2022-09-09T03:04:11;8.00;;;5.63;;
19339;SDS011;9804;52.350;6.684;2022-09-09T03:06:37;10.07;;;5.95;;
19339;SDS011;9804;52.350;6.684;2022-09-09T03:09:02;9.70;;;6.35;;
19339;SDS011;9804;52.350;6.684;2022-09-09T03:11:28;6.82;;;6.15;;
19339;SDS011;9804;52.350;6.684;2022-09-09T03:13:54;7.57;;;6.30;;
19339;SDS011;9804;52.350;6.684;2022-09-09T03:16:21;6.65;;;5.97;;
19339;SDS011;9804;52.350;6.684;2022-09-09T03:18:49;7.40;;;5.85;;
19339;SDS011;9804;52.350;6.684;2022-09-09T03:21:14;8.27;;;6.97;;
19339;SDS011;9804;52.350;6.684;2022-09-09T03:23:40;11.13;;;6.55;;
19339;SDS011;9804;52.350;6.684;2022-09-09T03:26:05;8.93;;;6.47;;
19339;SDS011;9804;52.350;6.684;2022-09-09T03:28:31;8.75;;;5.68;;
19339;SDS011;9804;52.350;6.684;2022-09-09T03:30:58;8.95;;;6.30;;
19339;SDS011;9804;52.350;6.684;2022-09-09T03:33:28;10.27;;;6.18;;
19339;SDS011;9804;52.350;6.684;2022-09-09T03:35:54;8.25;;;5.80;;
19339;SDS011;9804;52.350;6.684;2022-09-09T03:38:21;7.72;;;5.85;;
19339;SDS011;9804;52.350;6.684;2022-09-09T03:40:53;10.48;;;6.28;;
19339;SDS011;9804;52.350;6.684;2022-09-09T03:43:20;8.90;;;5.45;;
19339;SDS011;9804;52.350;6.684;2022-09-09T03:45:46;7.22;;;5.72;;
19339;SDS011;9804;52.350;6.684;2022-09-09T03:48:12;6.53;;;5.53;;
19339;SDS011;9804;52.350;6.684;2022-09-09T03:50:38;7.30;;;5.70;;
19339;SDS011;9804;52.350;6.684;2022-09-09T03:53:03;7.13;;;5.57;;
19339;SDS011;9804;52.350;6.684;2022-09-09T03:55:30;7.10;;;5.88;;
19339;SDS011;9804;52.350;6.684;2022-09-09T03:57:56;8.07;;;5.55;;
19339;SDS011;9804;52.350;6.684;2022-09-09T04:00:21;5.18;;;4.53;;
19339;SDS011;9804;52.350;6.684;2022-09-09T04:02:46;5.93;;;4.78;;
19339;SDS011;9804;52.350;6.684;2022-09-09T04:05:12;7.10;;;5.65;;
19339;SDS011;9804;52.350;6.684;2022-09-09T04:07:38;6.30;;;4.88;;
19339;SDS011;9804;52.350;6.684;2022-09-09T04:10:03;6.63;;;5.22;;
19339;SDS011;9804;52.350;6.684;2022-09-09T04:12:29;5.82;;;4.80;;
19339;SDS011;9804;52.350;6.684;2022-09-09T04:14:54;7.00;;;5.22;;
19339;SDS011;9804;52.350;6.684;2022-09-09T04:17:20;6.65;;;4.40;;
19339;SDS011;9804;52.350;6.684;2022-09-09T04:19:45;8.63;;;5.35;;
19339;SDS011;9804;52.350;6.684;2022-09-09T04:22:11;8.73;;;5.20;;
19339;SDS011;9804;52.350;6.684;2022-09-09T04:24:36;6.85;;;5.20;;
19339;SDS011;9804;52.350;6.684;2022-09-09T04:27:02;10.70;;;5.70;;
19339;SDS011;9804;52.350;6.684;2022-09-09T04:29:27;6.35;;;5.65;;
19339;SDS011;9804;52.350;6.684;2022-09-09T04:31:52;8.95;;;5.75;;
19339;SDS011;9804;52.350;6.684;2022-09-09T04:34:18;8.50;;;5.93;;
19339;SDS011;9804;52.350;6.684;2022-09-09T04:36:43;10.27;;;6.57;;
19339;SDS011;9804;52.350;6.684;2022-09-09T04:39:09;6.25;;;5.55;;
19339;SDS011;9804;52.350;6.684;2022-09-09T04:41:34;8.60;;;6.25;;
19339;SDS011;9804;52.350;6.684;2022-09-09T04:43:59;11.43;;;5.88;;
19339;SDS011;9804;52.350;6.684;2022-09-09T04:46:25;10.40;;;6.38;;
19339;SDS011;9804;52.350;6.684;2022-09-09T04:48:51;8.57;;;5.88;;
19339;SDS011;9804;52.350;6.684;2022-09-09T04:51:17;10.27;;;6.47;;
19339;SDS011;9804;52.350;6.684;2022-09-09T04:53:43;9.23;;;6.07;;
19339;SDS011;9804;52.350;6.684;2022-09-09T04:56:12;9.40;;;6.43;;
19339;SDS011;9804;52.350;6.684;2022-09-09T04:58:41;10.07;;;6.82;;
19339;SDS011;9804;52.350;6.684;2022-09-09T05:01:20;9.48;;;6.70;;
19339;SDS011;9804;52.350;6.684;2022-09-09T05:03:46;9.00;;;6.07;;
19339;SDS011;9804;52.350;6.684;2022-09-09T05:06:13;10.20;;;6.85;;
19339;SDS011;9804;52.350;6.684;2022-09-09T05:08:41;12.77;;;7.53;;
19339;SDS011;9804;52.350;6.684;2022-09-09T05:11:20;11.32;;;7.10;;
19339;SDS011;9804;52.350;6.684;2022-09-09T05:13:50;15.95;;;7.32;;
19339;SDS011;9804;52.350;6.684;2022-09-09T05:16:17;8.55;;;6.60;;
19339;SDS011;9804;52.350;6.684;2022-09-09T05:18:44;9.65;;;6.38;;
19339;SDS011;9804;52.350;6.684;2022-09-09T05:21:11;11.20;;;6.70;;
19339;SDS011;9804;52.350;6.684;2022-09-09T05:23:37;11.75;;;6.38;;
19339;SDS011;9804;52.350;6.684;2022-09-09T05:26:03;7.68;;;6.30;;
19339;SDS011;9804;52.350;6.684;2022-09-09T05:28:29;11.27;;;6.20;;
19339;SDS011;9804;52.350;6.684;2022-09-09T05:31:05;10.75;;;5.95;;
19339;SDS011;9804;52.350;6.684;2022-09-09T05:33:37;9.70;;;6.10;;
19339;SDS011;9804;52.350;6.684;2022-09-09T05:36:06;8.88;;;5.35;;
19339;SDS011;9804;52.350;6.684;2022-09-09T05:38:33;8.50;;;5.30;;
19339;SDS011;9804;52.350;6.684;2022-09-09T05:41:00;14.65;;;5.25;;
19339;SDS011;9804;52.350;6.684;2022-09-09T05:43:27;12.48;;;5.28;;
19339;SDS011;9804;52.350;6.684;2022-09-09T05:48:30;10.15;;;5.55;;
19339;SDS011;9804;52.350;6.684;2022-09-09T05:50:56;7.88;;;5.20;;
19339;SDS011;9804;52.350;6.684;2022-09-09T05:53:22;11.05;;;5.05;;
19339;SDS011;9804;52.350;6.684;2022-09-09T05:55:48;10.02;;;5.18;;
19339;SDS011;9804;52.350;6.684;2022-09-09T05:58:13;11.45;;;5.55;;
19339;SDS011;9804;52.350;6.684;2022-09-09T06:00:41;8.63;;;4.07;;
19339;SDS011;9804;52.350;6.684;2022-09-09T06:03:10;8.68;;;4.70;;
19339;SDS011;9804;52.350;6.684;2022-09-09T06:05:36;10.25;;;5.10;;
19339;SDS011;9804;52.350;6.684;2022-09-09T06:08:01;20.92;;;6.43;;
19339;SDS011;9804;52.350;6.684;2022-09-09T06:10:26;7.25;;;4.50;;
19339;SDS011;9804;52.350;6.684;2022-09-09T06:12:53;9.02;;;4.55;;
19339;SDS011;9804;52.350;6.684;2022-09-09T06:15:18;6.13;;;3.75;;
19339;SDS011;9804;52.350;6.684;2022-09-09T06:17:43;7.25;;;4.43;;
19339;SDS011;9804;52.350;6.684;2022-09-09T06:20:10;9.02;;;5.05;;
19339;SDS011;9804;52.350;6.684;2022-09-09T06:22:36;9.20;;;4.90;;
19339;SDS011;9804;52.350;6.684;2022-09-09T06:25:01;11.55;;;5.32;;
19339;SDS011;9804;52.350;6.684;2022-09-09T06:27:27;6.07;;;4.47;;
19339;SDS011;9804;52.350;6.684;2022-09-09T06:29:52;8.63;;;4.60;;
19339;SDS011;9804;52.350;6.684;2022-09-09T06:32:18;8.27;;;4.57;;
19339;SDS011;9804;52.350;6.684;2022-09-09T06:34:43;7.60;;;4.45;;
19339;SDS011;9804;52.350;6.684;2022-09-09T06:37:08;12.13;;;4.95;;
19339;SDS011;9804;52.350;6.684;2022-09-09T06:39:34;8.40;;;4.20;;
19339;SDS011;9804;52.350;6.684;2022-09-09T06:41:59;7.07;;;4.57;;
19339;SDS011;9804;52.350;6.684;2022-09-09T06:44:24;6.30;;;3.67;;
19339;SDS011;9804;52.350;6.684;2022-09-09T06:46:51;9.45;;;4.05;;
19339;SDS011;9804;52.350;6.684;2022-09-09T06:49:17;9.25;;;3.95;;
19339;SDS011;9804;52.350;6.684;2022-09-09T06:51:42;9.82;;;4.25;;
19339;SDS011;9804;52.350;6.684;2022-09-09T06:54:09;9.25;;;4.03;;
19339;SDS011;9804;52.350;6.684;2022-09-09T06:56:37;9.02;;;3.95;;
19339;SDS011;9804;52.350;6.684;2022-09-09T06:59:05;7.38;;;3.47;;
19339;SDS011;9804;52.350;6.684;2022-09-09T07:01:34;8.55;;;4.25;;
19339;SDS011;9804;52.350;6.684;2022-09-09T07:04:05;10.23;;;4.25;;
19339;SDS011;9804;52.350;6.684;2022-09-09T07:06:33;8.93;;;4.60;;
19339;SDS011;9804;52.350;6.684;2022-09-09T07:09:05;6.32;;;3.58;;
19339;SDS011;9804;52.350;6.684;2022-09-09T07:11:33;7.35;;;3.63;;
19339;SDS011;9804;52.350;6.684;2022-09-09T07:14:02;9.65;;;4.05;;
19339;SDS011;9804;52.350;6.684;2022-09-09T07:16:27;7.82;;;3.17;;
19339;SDS011;9804;52.350;6.684;2022-09-09T07:18:54;8.38;;;3.42;;
19339;SDS011;9804;52.350;6.684;2022-09-09T07:21:29;10.43;;;3.50;;
19339;SDS011;9804;52.350;6.684;2022-09-09T07:23:55;8.23;;;3.20;;
19339;SDS011;9804;52.350;6.684;2022-09-09T07:26:22;8.68;;;3.33;;
19339;SDS011;9804;52.350;6.684;2022-09-09T07:28:48;6.35;;;3.00;;
19339;SDS011;9804;52.350;6.684;2022-09-09T07:31:15;6.20;;;2.80;;
19339;SDS011;9804;52.350;6.684;2022-09-09T07:33:48;9.38;;;3.10;;
19339;SDS011;9804;52.350;6.684;2022-09-09T07:36:15;7.82;;;3.83;;
19339;SDS011;9804;52.350;6.684;2022-09-09T07:38:46;4.70;;;2.90;;
19339;SDS011;9804;52.350;6.684;2022-09-09T07:41:20;10.50;;;3.80;;
19339;SDS011;9804;52.350;6.684;2022-09-09T07:43:48;9.80;;;3.30;;
19339;SDS011;9804;52.350;6.684;2022-09-09T07:46:15;8.80;;;3.25;;
19339;SDS011;9804;52.350;6.684;2022-09-09T07:48:45;9.25;;;2.70;;
19339;SDS011;9804;52.350;6.684;2022-09-09T07:51:16;9.45;;;3.10;;
19339;SDS011;9804;52.350;6.684;2022-09-09T07:53:44;10.38;;;3.35;;
19339;SDS011;9804;52.350;6.684;2022-09-09T07:56:15;7.82;;;2.95;;
19339;SDS011;9804;52.350;6.684;2022-09-09T07:58:42;9.88;;;2.67;;
19339;SDS011;9804;52.350;6.684;2022-09-09T08:01:10;7.95;;;2.30;;
19339;SDS011;9804;52.350;6.684;2022-09-09T08:03:57;7.57;;;2.70;;
19339;SDS011;9804;52.350;6.684;2022-09-09T08:06:28;6.43;;;2.10;;
19339;SDS011;9804;52.350;6.684;2022-09-09T08:08:55;7.28;;;2.45;;
19339;SDS011;9804;52.350;6.684;2022-09-09T08:11:21;6.63;;;2.70;;
19339;SDS011;9804;52.350;6.684;2022-09-09T08:13:51;6.03;;;2.50;;
19339;SDS011;9804;52.350;6.684;2022-09-09T08:16:18;8.85;;;2.80;;
19339;SDS011;9804;52.350;6.684;2022-09-09T08:18:48;8.60;;;2.47;;
19339;SDS011;9804;52.350;6.684;2022-09-09T08:21:18;5.72;;;2.50;;
19339;SDS011;9804;52.350;6.684;2022-09-09T08:23:46;9.70;;;2.60;;
19339;SDS011;9804;52.350;6.684;2022-09-09T08:26:13;6.78;;;2.25;;
19339;SDS011;9804;52.350;6.684;2022-09-09T08:28:41;11.82;;;2.60;;
19339;SDS011;9804;52.350;6.684;2022-09-09T08:33:34;8.35;;;2.28;;
19339;SDS011;9804;52.350;6.684;2022-09-09T08:36:01;9.45;;;2.67;;
19339;SDS011;9804;52.350;6.684;2022-09-09T08:38:26;7.82;;;2.75;;
19339;SDS011;9804;52.350;6.684;2022-09-09T08:40:53;7.90;;;1.90;;
19339;SDS011;9804;52.350;6.684;2022-09-09T08:43:40;8.68;;;2.80;;
19339;SDS011;9804;52.350;6.684;2022-09-09T08:49:16;7.30;;;1.90;;
19339;SDS011;9804;52.350;6.684;2022-09-09T08:52:02;6.82;;;1.80;;
19339;SDS011;9804;52.350;6.684;2022-09-09T08:54:29;10.60;;;2.20;;
19339;SDS011;9804;52.350;6.684;2022-09-09T08:56:58;9.07;;;1.58;;
19339;SDS011;9804;52.350;6.684;2022-09-09T08:59:24;9.90;;;2.10;;
19339;SDS011;9804;52.350;6.684;2022-09-09T09:01:51;8.40;;;1.70;;
19339;SDS011;9804;52.350;6.684;2022-09-09T09:04:46;10.20;;;1.90;;
19339;SDS011;9804;52.350;6.684;2022-09-09T09:07:48;9.18;;;2.10;;
19339;SDS011;9804;52.350;6.684;2022-09-09T09:13:13;7.38;;;2.58;;
19339;SDS011;9804;52.350;6.684;2022-09-09T09:15:46;8.98;;;1.75;;
19339;SDS011;9804;52.350;6.684;2022-09-09T09:18:15;7.47;;;1.70;;
19339;SDS011;9804;52.350;6.684;2022-09-09T09:20:48;7.28;;;1.40;;
19339;SDS011;9804;52.350;6.684;2022-09-09T09:23:31;6.65;;;1.70;;
19339;SDS011;9804;52.350;6.684;2022-09-09T09:26:06;7.05;;;1.55;;
19339;SDS011;9804;52.350;6.684;2022-09-09T09:28:35;7.50;;;1.50;;
19339;SDS011;9804;52.350;6.684;2022-09-09T09:31:05;8.10;;;1.60;;
19339;SDS011;9804;52.350;6.684;2022-09-09T09:36:11;5.15;;;1.48;;
19339;SDS011;9804;52.350;6.684;2022-09-09T09:38:40;10.07;;;1.92;;
19339;SDS011;9804;52.350;6.684;2022-09-09T09:41:36;7.40;;;1.52;;
19339;SDS011;9804;52.350;6.684;2022-09-09T09:44:05;6.47;;;1.70;;
19339;SDS011;9804;52.350;6.684;2022-09-09T09:46:44;9.20;;;1.73;;
19339;SDS011;9804;52.350;6.684;2022-09-09T09:49:10;6.53;;;1.38;;
19339;SDS011;9804;52.350;6.684;2022-09-09T09:51:35;6.72;;;1.60;;
19339;SDS011;9804;52.350;6.684;2022-09-09T09:54:08;6.18;;;1.50;;
19339;SDS011;9804;52.350;6.684;2022-09-09T09:56:38;8.73;;;1.55;;
19339;SDS011;9804;52.350;6.684;2022-09-09T09:59:04;2.65;;;1.10;;
19339;SDS011;9804;52.350;6.684;2022-09-09T10:01:31;8.00;;;1.65;;
19339;SDS011;9804;52.350;6.684;2022-09-09T10:04:01;7.85;;;1.80;;
19339;SDS011;9804;52.350;6.684;2022-09-09T10:06:38;7.50;;;1.75;;
19339;SDS011;9804;52.350;6.684;2022-09-09T10:09:18;5.20;;;1.13;;
19339;SDS011;9804;52.350;6.684;2022-09-09T10:17:02;6.15;;;1.30;;
19339;SDS011;9804;52.350;6.684;2022-09-09T10:19:33;9.88;;;1.80;;
19339;SDS011;9804;52.350;6.684;2022-09-09T10:33:09;7.38;;;1.73;;
19339;SDS011;9804;52.350;6.684;2022-09-09T10:38:13;5.07;;;1.40;;
19339;SDS011;9804;52.350;6.684;2022-09-09T10:40:59;5.78;;;1.50;;
19339;SDS011;9804;52.350;6.684;2022-09-09T10:43:56;6.82;;;1.30;;
19339;SDS011;9804;52.350;6.684;2022-09-09T10:46:46;4.75;;;1.55;;
19339;SDS011;9804;52.350;6.684;2022-09-09T10:49:29;4.90;;;1.40;;
19339;SDS011;9804;52.350;6.684;2022-09-09T10:59:53;6.85;;;1.30;;
19339;SDS011;9804;52.350;6.684;2022-09-09T11:02:26;5.82;;;1.27;;
19339;SDS011;9804;52.350;6.684;2022-09-09T11:04:54;4.10;;;1.23;;
19339;SDS011;9804;52.350;6.684;2022-09-09T11:08:10;5.93;;;1.20;;
19339;SDS011;9804;52.350;6.684;2022-09-09T11:12:56;6.80;;;1.67;;
19339;SDS011;9804;52.350;6.684;2022-09-09T11:15:28;4.20;;;0.98;;
19339;SDS011;9804;52.350;6.684;2022-09-09T11:18:01;4.82;;;1.65;;
19339;SDS011;9804;52.350;6.684;2022-09-09T11:20:29;6.00;;;1.30;;
19339;SDS011;9804;52.350;6.684;2022-09-09T11:23:11;8.30;;;1.42;;
19339;SDS011;9804;52.350;6.684;2022-09-09T11:25:42;6.90;;;1.40;;
19339;SDS011;9804;52.350;6.684;2022-09-09T11:36:45;6.10;;;1.67;;
19339;SDS011;9804;52.350;6.684;2022-09-09T11:39:32;3.45;;;1.20;;
19339;SDS011;9804;52.350;6.684;2022-09-09T11:42:07;3.65;;;1.10;;
19339;SDS011;9804;52.350;6.684;2022-09-09T11:44:42;9.13;;;1.52;;
19339;SDS011;9804;52.350;6.684;2022-09-09T11:47:21;7.13;;;1.52;;
19339;SDS011;9804;52.350;6.684;2022-09-09T11:49:51;10.23;;;1.50;;
19339;SDS011;9804;52.350;6.684;2022-09-09T11:55:36;7.65;;;1.20;;
19339;SDS011;9804;52.350;6.684;2022-09-09T11:57:57;4.03;;;1.33;;
19339;SDS011;9804;52.350;6.684;2022-09-09T12:06:15;5.63;;;1.10;;
19339;SDS011;9804;52.350;6.684;2022-09-09T12:08:52;5.40;;;1.40;;
19339;SDS011;9804;52.350;6.684;2022-09-09T12:11:26;4.85;;;1.25;;
19339;SDS011;9804;52.350;6.684;2022-09-09T12:13:53;5.25;;;1.10;;
19339;SDS011;9804;52.350;6.684;2022-09-09T12:16:33;2.33;;;1.10;;
19339;SDS011;9804;52.350;6.684;2022-09-09T12:21:36;7.30;;;1.20;;
19339;SDS011;9804;52.350;6.684;2022-09-09T12:24:27;9.18;;;1.20;;
19339;SDS011;9804;52.350;6.684;2022-09-09T12:27:16;4.93;;;0.77;;
19339;SDS011;9804;52.350;6.684;2022-09-09T12:30:10;5.97;;;1.17;;
19339;SDS011;9804;52.350;6.684;2022-09-09T12:32:39;6.45;;;1.20;;
19339;SDS011;9804;52.350;6.684;2022-09-09T12:35:21;5.10;;;1.00;;
19339;SDS011;9804;52.350;6.684;2022-09-09T12:37:53;5.63;;;1.15;;
19339;SDS011;9804;52.350;6.684;2022-09-09T12:40:30;3.90;;;1.10;;
19339;SDS011;9804;52.350;6.684;2022-09-09T12:42:59;5.55;;;1.05;;
19339;SDS011;9804;52.350;6.684;2022-09-09T12:45:46;3.55;;;1.00;;
19339;SDS011;9804;52.350;6.684;2022-09-09T12:48:12;3.65;;;1.17;;
19339;SDS011;9804;52.350;6.684;2022-09-09T12:50:44;6.75;;;1.25;;
19339;SDS011;9804;52.350;6.684;2022-09-09T12:53:18;4.68;;;0.88;;
19339;SDS011;9804;52.350;6.684;2022-09-09T12:56:08;4.53;;;0.90;;
19339;SDS011;9804;52.350;6.684;2022-09-09T12:58:44;3.75;;;1.00;;
19339;SDS011;9804;52.350;6.684;2022-09-09T13:01:18;4.07;;;1.20;;
19339;SDS011;9804;52.350;6.684;2022-09-09T13:04:16;5.43;;;1.20;;
19339;SDS011;9804;52.350;6.684;2022-09-09T13:06:46;5.63;;;1.23;;
19339;SDS011;9804;52.350;6.684;2022-09-09T13:09:12;3.72;;;1.00;;
19339;SDS011;9804;52.350;6.684;2022-09-09T13:11:58;4.28;;;1.35;;
19339;SDS011;9804;52.350;6.684;2022-09-09T13:14:29;8.73;;;1.50;;
19339;SDS011;9804;52.350;6.684;2022-09-09T13:17:00;3.42;;;0.82;;
19339;SDS011;9804;52.350;6.684;2022-09-09T13:19:29;4.55;;;1.27;;
19339;SDS011;9804;52.350;6.684;2022-09-09T13:21:59;5.85;;;1.13;;
19339;SDS011;9804;52.350;6.684;2022-09-09T13:24:31;9.80;;;1.38;;
19339;SDS011;9804;52.350;6.684;2022-09-09T13:27:00;4.25;;;1.20;;
19339;SDS011;9804;52.350;6.684;2022-09-09T13:29:27;4.28;;;0.98;;
19339;SDS011;9804;52.350;6.684;2022-09-09T13:31:54;3.15;;;0.82;;
19339;SDS011;9804;52.350;6.684;2022-09-09T13:34:37;6.82;;;0.88;;
19339;SDS011;9804;52.350;6.684;2022-09-09T13:37:03;2.95;;;0.60;;
19339;SDS011;9804;52.350;6.684;2022-09-09T13:39:32;0.90;;;0.70;;
19339;SDS011;9804;52.350;6.684;2022-09-09T13:41:59;3.47;;;0.82;;
19339;SDS011;9804;52.350;6.684;2022-09-09T13:44:30;4.05;;;0.70;;
19339;SDS011;9804;52.350;6.684;2022-09-09T13:47:00;2.50;;;1.00;;
19339;SDS011;9804;52.350;6.684;2022-09-09T13:49:27;5.53;;;0.88;;
19339;SDS011;9804;52.350;6.684;2022-09-09T13:52:03;5.72;;;1.50;;
19339;SDS011;9804;52.350;6.684;2022-09-09T13:54:31;4.80;;;1.30;;
19339;SDS011;9804;52.350;6.684;2022-09-09T13:56:56;2.80;;;1.02;;
19339;SDS011;9804;52.350;6.684;2022-09-09T13:59:21;3.95;;;1.20;;
19339;SDS011;9804;52.350;6.684;2022-09-09T14:01:49;2.53;;;1.05;;
19339;SDS011;9804;52.350;6.684;2022-09-09T14:04:14;9.18;;;1.40;;
19339;SDS011;9804;52.350;6.684;2022-09-09T14:06:40;1.83;;;0.98;;
19339;SDS011;9804;52.350;6.684;2022-09-09T14:09:07;4.22;;;1.00;;
19339;SDS011;9804;52.350;6.684;2022-09-09T14:11:35;3.17;;;1.30;;
19339;SDS011;9804;52.350;6.684;2022-09-09T14:14:01;3.70;;;1.50;;
19339;SDS011;9804;52.350;6.684;2022-09-09T14:16:26;4.75;;;1.50;;
19339;SDS011;9804;52.350;6.684;2022-09-09T14:18:52;5.05;;;1.38;;
19339;SDS011;9804;52.350;6.684;2022-09-09T14:21:18;3.25;;;1.35;;
19339;SDS011;9804;52.350;6.684;2022-09-09T14:23:43;4.72;;;1.83;;
19339;SDS011;9804;52.350;6.684;2022-09-09T14:26:08;5.60;;;2.08;;
19339;SDS011;9804;52.350;6.684;2022-09-09T14:28:35;4.60;;;2.17;;
19339;SDS011;9804;52.350;6.684;2022-09-09T14:31:02;3.80;;;1.45;;
19339;SDS011;9804;52.350;6.684;2022-09-09T14:33:29;5.13;;;1.83;;
19339;SDS011;9804;52.350;6.684;2022-09-09T14:35:58;4.38;;;1.75;;
19339;SDS011;9804;52.350;6.684;2022-09-09T14:38:25;5.80;;;1.95;;
19339;SDS011;9804;52.350;6.684;2022-09-09T14:40:54;3.70;;;1.80;;
19339;SDS011;9804;52.350;6.684;2022-09-09T14:43:19;5.95;;;2.10;;
19339;SDS011;9804;52.350;6.684;2022-09-09T14:45:45;4.22;;;1.55;;
19339;SDS011;9804;52.350;6.684;2022-09-09T14:48:12;4.43;;;2.17;;
19339;SDS011;9804;52.350;6.684;2022-09-09T14:50:39;7.72;;;2.10;;
19339;SDS011;9804;52.350;6.684;2022-09-09T14:53:05;6.20;;;2.17;;
19339;SDS011;9804;52.350;6.684;2022-09-09T14:55:31;9.20;;;2.05;;
19339;SDS011;9804;52.350;6.684;2022-09-09T14:57:56;3.33;;;1.60;;
19339;SDS011;9804;52.350;6.684;2022-09-09T15:00:21;4.93;;;1.88;;
19339;SDS011;9804;52.350;6.684;2022-09-09T15:02:47;4.55;;;1.52;;
19339;SDS011;9804;52.350;6.684;2022-09-09T15:05:12;5.38;;;1.67;;
19339;SDS011;9804;52.350;6.684;2022-09-09T15:07:38;4.82;;;2.00;;
19339;SDS011;9804;52.350;6.684;2022-09-09T15:10:03;5.55;;;2.20;;
19339;SDS011;9804;52.350;6.684;2022-09-09T15:12:29;4.30;;;2.10;;
19339;SDS011;9804;52.350;6.684;2022-09-09T15:14:55;5.53;;;1.80;;
19339;SDS011;9804;52.350;6.684;2022-09-09T15:17:20;4.03;;;2.08;;
19339;SDS011;9804;52.350;6.684;2022-09-09T15:19:46;7.22;;;1.90;;
19339;SDS011;9804;52.350;6.684;2022-09-09T15:22:11;5.57;;;2.25;;
19339;SDS011;9804;52.350;6.684;2022-09-09T15:24:36;4.93;;;2.10;;
19339;SDS011;9804;52.350;6.684;2022-09-09T15:27:02;8.40;;;2.20;;
19339;SDS011;9804;52.350;6.684;2022-09-09T15:29:27;6.45;;;1.67;;
19339;SDS011;9804;52.350;6.684;2022-09-09T15:31:53;7.53;;;1.90;;
19339;SDS011;9804;52.350;6.684;2022-09-09T15:34:20;6.05;;;2.17;;
19339;SDS011;9804;52.350;6.684;2022-09-09T15:36:45;5.43;;;1.85;;
19339;SDS011;9804;52.350;6.684;2022-09-09T15:39:12;7.88;;;2.10;;
19339;SDS011;9804;52.350;6.684;2022-09-09T15:41:41;3.40;;;2.20;;
19339;SDS011;9804;52.350;6.684;2022-09-09T15:44:11;5.03;;;2.58;;
19339;SDS011;9804;52.350;6.684;2022-09-09T15:46:48;7.68;;;2.67;;
19339;SDS011;9804;52.350;6.684;2022-09-09T15:49:16;3.58;;;1.92;;
19339;SDS011;9804;52.350;6.684;2022-09-09T15:51:47;4.25;;;1.80;;
19339;SDS011;9804;52.350;6.684;2022-09-09T15:54:17;6.55;;;2.20;;
19339;SDS011;9804;52.350;6.684;2022-09-09T15:56:44;7.45;;;2.28;;
19339;SDS011;9804;52.350;6.684;2022-09-09T15:59:11;7.28;;;2.10;;
19339;SDS011;9804;52.350;6.684;2022-09-09T16:01:38;5.82;;;2.30;;
19339;SDS011;9804;52.350;6.684;2022-09-09T16:04:04;5.25;;;1.95;;
19339;SDS011;9804;52.350;6.684;2022-09-09T16:06:30;3.65;;;1.80;;
19339;SDS011;9804;52.350;6.684;2022-09-09T16:08:57;6.00;;;1.77;;
19339;SDS011;9804;52.350;6.684;2022-09-09T16:11:24;6.55;;;2.10;;
19339;SDS011;9804;52.350;6.684;2022-09-09T16:13:51;6.80;;;1.80;;
19339;SDS011;9804;52.350;6.684;2022-09-09T16:16:18;7.95;;;2.85;;
19339;SDS011;9804;52.350;6.684;2022-09-09T16:18:47;22.02;;;7.13;;
19339;SDS011;9804;52.350;6.684;2022-09-09T16:21:20;5.55;;;1.80;;
19339;SDS011;9804;52.350;6.684;2022-09-09T16:23:49;7.10;;;1.77;;
19339;SDS011;9804;52.350;6.684;2022-09-09T16:26:16;3.55;;;1.40;;
19339;SDS011;9804;52.350;6.684;2022-09-09T16:28:42;6.82;;;1.90;;
19339;SDS011;9804;52.350;6.684;2022-09-09T16:31:09;5.63;;;2.05;;
19339;SDS011;9804;52.350;6.684;2022-09-09T16:33:38;5.43;;;1.85;;
19339;SDS011;9804;52.350;6.684;2022-09-09T16:36:06;4.75;;;1.42;;
19339;SDS011;9804;52.350;6.684;2022-09-09T16:38:33;7.47;;;1.88;;
19339;SDS011;9804;52.350;6.684;2022-09-09T16:41:00;6.20;;;1.63;;
19339;SDS011;9804;52.350;6.684;2022-09-09T16:43:27;5.15;;;1.40;;
19339;SDS011;9804;52.350;6.684;2022-09-09T16:45:52;4.97;;;1.65;;
19339;SDS011;9804;52.350;6.684;2022-09-09T16:48:17;4.63;;;1.27;;
19339;SDS011;9804;52.350;6.684;2022-09-09T16:50:42;3.35;;;1.52;;